sensor_id;sensor_type;location;lat;lon;timestamp;pressure;altitude;pressure_sealevel;temperature;humidity
81057;BME280;70563;50.084;14.468;2024-01-30T00:01:39;100434.94;;;-1.89;98.93
81057;BME280;70563;50.084;14.468;2024-01-30T00:04:05;100421.69;;;-1.81;98.72
81057;BME280;70563;50.084;14.468;2024-01-30T00:06:30;100427.56;;;-1.78;98.59
81057;BME280;70563;50.084;14.468;2024-01-30T00:08:56;100429.25;;;-1.77;98.00
81057;BME280;70563;50.084;14.468;2024-01-30T00:11:22;100433.59;;;-1.99;98.24
81057;BME280;70563;50.084;14.468;2024-01-30T00:13:47;100428.59;;;-2.04;98.99
81057;BME280;70563;50.084;14.468;2024-01-30T00:16:22;100430.25;;;-2.01;98.63
81057;BME280;70563;50.084;14.468;2024-01-30T00:18:50;100428.38;;;-1.97;98.88
81057;BME280;70563;50.084;14.468;2024-01-30T00:21:15;100429.41;;;-2.02;99.00
81057;BME280;70563;50.084;14.468;2024-01-30T00:23:41;100429.53;;;-2.27;98.91
81057;BME280;70563;50.084;14.468;2024-01-30T00:26:06;100429.81;;;-2.12;98.95
81057;BME280;70563;50.084;14.468;2024-01-30T00:28:31;100419.47;;;-2.12;99.14
81057;BME280;70563;50.084;14.468;2024-01-30T00:30:57;100412.91;;;-2.21;99.12
81057;BME280;70563;50.084;14.468;2024-01-30T00:33:22;100415.94;;;-2.32;99.44
81057;BME280;70563;50.084;14.468;2024-01-30T00:35:47;100421.88;;;-2.30;99.35
81057;BME280;70563;50.084;14.468;2024-01-30T00:38:13;100415.75;;;-2.27;99.61
81057;BME280;70563;50.084;14.468;2024-01-30T00:40:38;100421.66;;;-2.23;99.69
81057;BME280;70563;50.084;14.468;2024-01-30T00:43:03;100409.25;;;-2.15;99.74
81057;BME280;70563;50.084;14.468;2024-01-30T00:45:29;100409.91;;;-2.10;99.92
81057;BME280;70563;50.084;14.468;2024-01-30T00:47:54;100408.09;;;-2.08;99.51
81057;BME280;70563;50.084;14.468;2024-01-30T00:50:20;100413.41;;;-2.11;99.51
81057;BME280;70563;50.084;14.468;2024-01-30T00:52:45;100414.81;;;-2.04;99.58
81057;BME280;70563;50.084;14.468;2024-01-30T00:55:11;100408.63;;;-2.00;99.40
81057;BME280;70563;50.084;14.468;2024-01-30T00:57:36;100407.22;;;-1.87;99.57
81057;BME280;70563;50.084;14.468;2024-01-30T01:00:02;100413.56;;;-1.94;99.19
81057;BME280;70563;50.084;14.468;2024-01-30T01:02:28;100416.28;;;-1.97;98.79
81057;BME280;70563;50.084;14.468;2024-01-30T01:04:54;100414.34;;;-1.92;98.52
81057;BME280;70563;50.084;14.468;2024-01-30T01:07:19;100411.22;;;-2.00;98.39
81057;BME280;70563;50.084;14.468;2024-01-30T01:09:44;100403.63;;;-2.05;97.84
81057;BME280;70563;50.084;14.468;2024-01-30T01:12:10;100409.16;;;-1.92;98.89
81057;BME280;70563;50.084;14.468;2024-01-30T01:14:35;100403.69;;;-1.84;98.45
81057;BME280;70563;50.084;14.468;2024-01-30T01:17:01;100398.16;;;-1.97;98.07
81057;BME280;70563;50.084;14.468;2024-01-30T01:19:26;100397.34;;;-2.19;98.16
81057;BME280;70563;50.084;14.468;2024-01-30T01:21:52;100395.69;;;-2.00;98.04
81057;BME280;70563;50.084;14.468;2024-01-30T01:24:18;100393.38;;;-1.86;98.19
81057;BME280;70563;50.084;14.468;2024-01-30T01:26:43;100392.13;;;-1.97;97.62
81057;BME280;70563;50.084;14.468;2024-01-30T01:29:09;100392.44;;;-2.27;97.96
81057;BME280;70563;50.084;14.468;2024-01-30T01:31:38;100390.34;;;-2.17;98.86
81057;BME280;70563;50.084;14.468;2024-01-30T01:34:11;100393.03;;;-2.20;99.18
81057;BME280;70563;50.084;14.468;2024-01-30T01:36:36;100393.41;;;-2.30;99.03
81057;BME280;70563;50.084;14.468;2024-01-30T01:39:01;100395.44;;;-2.38;98.84
81057;BME280;70563;50.084;14.468;2024-01-30T01:41:34;100394.25;;;-2.29;99.38
81057;BME280;70563;50.084;14.468;2024-01-30T01:43:59;100396.50;;;-2.20;100.00
81057;BME280;70563;50.084;14.468;2024-01-30T01:46:30;100393.88;;;-1.98;99.43
81057;BME280;70563;50.084;14.468;2024-01-30T01:48:58;100393.34;;;-2.06;98.57
81057;BME280;70563;50.084;14.468;2024-01-30T01:51:24;100395.56;;;-1.97;99.01
81057;BME280;70563;50.084;14.468;2024-01-30T01:53:53;100397.16;;;-1.94;98.60
81057;BME280;70563;50.084;14.468;2024-01-30T01:56:18;100401.19;;;-1.87;98.38
81057;BME280;70563;50.084;14.468;2024-01-30T01:58:46;100399.03;;;-1.76;98.92
81057;BME280;70563;50.084;14.468;2024-01-30T02:01:13;100384.06;;;-1.69;98.16
81057;BME280;70563;50.084;14.468;2024-01-30T02:03:40;100383.16;;;-1.89;97.34
81057;BME280;70563;50.084;14.468;2024-01-30T02:06:06;100387.03;;;-1.79;97.56
81057;BME280;70563;50.084;14.468;2024-01-30T02:08:31;100390.47;;;-1.78;97.24
81057;BME280;70563;50.084;14.468;2024-01-30T02:10:57;100389.13;;;-1.66;97.66
81057;BME280;70563;50.084;14.468;2024-01-30T02:13:22;100396.38;;;-1.54;96.41
81057;BME280;70563;50.084;14.468;2024-01-30T02:15:51;100385.09;;;-1.53;96.82
81057;BME280;70563;50.084;14.468;2024-01-30T02:18:16;100392.03;;;-1.54;97.15
81057;BME280;70563;50.084;14.468;2024-01-30T02:20:43;100389.38;;;-1.52;96.02
81057;BME280;70563;50.084;14.468;2024-01-30T02:23:09;100393.41;;;-1.45;95.54
81057;BME280;70563;50.084;14.468;2024-01-30T02:25:39;100388.50;;;-1.73;95.50
81057;BME280;70563;50.084;14.468;2024-01-30T02:28:10;100385.03;;;-1.92;96.13
81057;BME280;70563;50.084;14.468;2024-01-30T02:30:36;100390.75;;;-2.06;97.12
81057;BME280;70563;50.084;14.468;2024-01-30T02:33:01;100393.16;;;-2.02;97.73
81057;BME280;70563;50.084;14.468;2024-01-30T02:35:26;100390.16;;;-2.13;97.45
81057;BME280;70563;50.084;14.468;2024-01-30T02:37:51;100383.28;;;-2.14;97.68
81057;BME280;70563;50.084;14.468;2024-01-30T02:40:17;100394.94;;;-2.24;98.40
81057;BME280;70563;50.084;14.468;2024-01-30T02:42:42;100398.72;;;-2.33;98.01
81057;BME280;70563;50.084;14.468;2024-01-30T02:45:08;100396.19;;;-2.34;97.98
81057;BME280;70563;50.084;14.468;2024-01-30T02:47:34;100391.63;;;-2.28;98.80
81057;BME280;70563;50.084;14.468;2024-01-30T02:49:59;100387.22;;;-2.25;98.47
81057;BME280;70563;50.084;14.468;2024-01-30T02:52:25;100387.69;;;-2.38;98.51
81057;BME280;70563;50.084;14.468;2024-01-30T02:54:50;100381.38;;;-2.31;98.42
81057;BME280;70563;50.084;14.468;2024-01-30T02:57:15;100377.50;;;-2.20;98.11
81057;BME280;70563;50.084;14.468;2024-01-30T02:59:41;100379.56;;;-2.07;98.18
81057;BME280;70563;50.084;14.468;2024-01-30T03:02:07;100374.50;;;-2.10;98.02
81057;BME280;70563;50.084;14.468;2024-01-30T03:04:32;100378.97;;;-2.13;98.02
81057;BME280;70563;50.084;14.468;2024-01-30T03:06:58;100380.06;;;-2.19;98.33
81057;BME280;70563;50.084;14.468;2024-01-30T03:09:23;100382.84;;;-2.23;98.37
81057;BME280;70563;50.084;14.468;2024-01-30T03:11:48;100375.38;;;-2.31;98.39
81057;BME280;70563;50.084;14.468;2024-01-30T03:14:13;100377.16;;;-2.33;98.56
81057;BME280;70563;50.084;14.468;2024-01-30T03:16:39;100379.34;;;-2.22;99.04
81057;BME280;70563;50.084;14.468;2024-01-30T03:19:06;100376.91;;;-2.05;98.40
81057;BME280;70563;50.084;14.468;2024-01-30T03:21:33;100371.47;;;-1.99;97.66
81057;BME280;70563;50.084;14.468;2024-01-30T03:23:58;100368.53;;;-2.12;96.59
81057;BME280;70563;50.084;14.468;2024-01-30T03:26:24;100373.44;;;-2.26;97.82
81057;BME280;70563;50.084;14.468;2024-01-30T03:28:50;100365.63;;;-2.04;98.18
81057;BME280;70563;50.084;14.468;2024-01-30T03:31:15;100355.09;;;-1.99;96.58
81057;BME280;70563;50.084;14.468;2024-01-30T03:33:41;100364.91;;;-2.08;96.70
81057;BME280;70563;50.084;14.468;2024-01-30T03:36:07;100358.69;;;-2.24;97.39
81057;BME280;70563;50.084;14.468;2024-01-30T03:38:33;100358.53;;;-2.41;97.71
81057;BME280;70563;50.084;14.468;2024-01-30T03:40:58;100358.75;;;-2.47;98.02
81057;BME280;70563;50.084;14.468;2024-01-30T03:43:24;100361.53;;;-2.52;98.16
81057;BME280;70563;50.084;14.468;2024-01-30T03:45:49;100364.91;;;-2.50;98.98
81057;BME280;70563;50.084;14.468;2024-01-30T03:48:15;100352.47;;;-2.42;99.06
81057;BME280;70563;50.084;14.468;2024-01-30T03:50:40;100359.59;;;-2.25;99.09
81057;BME280;70563;50.084;14.468;2024-01-30T03:53:05;100358.78;;;-2.05;98.71
81057;BME280;70563;50.084;14.468;2024-01-30T03:55:31;100357.69;;;-1.99;97.41
81057;BME280;70563;50.084;14.468;2024-01-30T03:57:56;100354.72;;;-1.90;94.79
81057;BME280;70563;50.084;14.468;2024-01-30T04:00:21;100355.06;;;-1.98;94.13
81057;BME280;70563;50.084;14.468;2024-01-30T04:02:47;100346.44;;;-1.98;94.28
81057;BME280;70563;50.084;14.468;2024-01-30T04:05:12;100342.94;;;-1.97;95.22
81057;BME280;70563;50.084;14.468;2024-01-30T04:07:37;100340.31;;;-2.18;95.18
81057;BME280;70563;50.084;14.468;2024-01-30T04:10:03;100341.03;;;-2.14;96.42
81057;BME280;70563;50.084;14.468;2024-01-30T04:12:31;100345.13;;;-2.09;96.65
81057;BME280;70563;50.084;14.468;2024-01-30T04:14:56;100342.91;;;-2.18;97.09
81057;BME280;70563;50.084;14.468;2024-01-30T04:17:22;100344.63;;;-2.39;96.44
81057;BME280;70563;50.084;14.468;2024-01-30T04:19:47;100347.44;;;-2.45;98.02
81057;BME280;70563;50.084;14.468;2024-01-30T04:22:12;100344.53;;;-2.15;98.00
81057;BME280;70563;50.084;14.468;2024-01-30T04:24:38;100340.75;;;-2.07;97.01
81057;BME280;70563;50.084;14.468;2024-01-30T04:27:03;100349.06;;;-2.00;96.17
81057;BME280;70563;50.084;14.468;2024-01-30T04:29:29;100338.72;;;-2.00;95.59
81057;BME280;70563;50.084;14.468;2024-01-30T04:31:54;100342.72;;;-2.13;96.51
81057;BME280;70563;50.084;14.468;2024-01-30T04:34:20;100336.72;;;-2.14;97.12
81057;BME280;70563;50.084;14.468;2024-01-30T04:36:45;100347.53;;;-2.04;98.05
81057;BME280;70563;50.084;14.468;2024-01-30T04:39:11;100347.31;;;-1.99;97.68
81057;BME280;70563;50.084;14.468;2024-01-30T04:41:37;100360.34;;;-2.01;98.17
81057;BME280;70563;50.084;14.468;2024-01-30T04:44:03;100355.63;;;-1.91;97.82
81057;BME280;70563;50.084;14.468;2024-01-30T04:46:28;100350.84;;;-1.80;97.71
81057;BME280;70563;50.084;14.468;2024-01-30T04:48:54;100353.47;;;-1.82;97.38
81057;BME280;70563;50.084;14.468;2024-01-30T04:51:19;100348.06;;;-1.75;97.76
81057;BME280;70563;50.084;14.468;2024-01-30T04:53:44;100343.47;;;-1.89;96.72
81057;BME280;70563;50.084;14.468;2024-01-30T04:56:10;100351.13;;;-2.08;96.40
81057;BME280;70563;50.084;14.468;2024-01-30T04:58:35;100351.13;;;-2.29;96.43
81057;BME280;70563;50.084;14.468;2024-01-30T05:01:02;100355.44;;;-2.29;97.22
81057;BME280;70563;50.084;14.468;2024-01-30T05:03:27;100359.88;;;-2.11;97.75
81057;BME280;70563;50.084;14.468;2024-01-30T05:05:52;100358.59;;;-2.00;97.46
81057;BME280;70563;50.084;14.468;2024-01-30T05:08:18;100363.59;;;-1.96;97.01
81057;BME280;70563;50.084;14.468;2024-01-30T05:10:43;100363.47;;;-1.93;96.97
81057;BME280;70563;50.084;14.468;2024-01-30T05:13:09;100358.41;;;-1.96;96.69
81057;BME280;70563;50.084;14.468;2024-01-30T05:15:34;100369.19;;;-1.85;95.90
81057;BME280;70563;50.084;14.468;2024-01-30T05:17:59;100364.56;;;-1.78;95.51
81057;BME280;70563;50.084;14.468;2024-01-30T05:20:25;100368.19;;;-1.82;94.58
81057;BME280;70563;50.084;14.468;2024-01-30T05:22:53;100368.94;;;-2.00;95.46
81057;BME280;70563;50.084;14.468;2024-01-30T05:25:18;100362.22;;;-2.05;96.64
81057;BME280;70563;50.084;14.468;2024-01-30T05:27:44;100366.50;;;-1.83;96.68
81057;BME280;70563;50.084;14.468;2024-01-30T05:30:10;100372.28;;;-1.77;95.69
81057;BME280;70563;50.084;14.468;2024-01-30T05:32:35;100369.69;;;-1.97;94.92
81057;BME280;70563;50.084;14.468;2024-01-30T05:35:01;100370.28;;;-2.12;95.44
81057;BME280;70563;50.084;14.468;2024-01-30T05:37:26;100373.50;;;-2.28;95.65
81057;BME280;70563;50.084;14.468;2024-01-30T05:39:51;100365.97;;;-2.34;96.67
81057;BME280;70563;50.084;14.468;2024-01-30T05:42:17;100367.78;;;-2.14;96.30
81057;BME280;70563;50.084;14.468;2024-01-30T05:44:42;100359.94;;;-2.12;96.55
81057;BME280;70563;50.084;14.468;2024-01-30T05:47:08;100357.78;;;-2.23;95.75
81057;BME280;70563;50.084;14.468;2024-01-30T05:49:33;100364.91;;;-2.28;95.57
81057;BME280;70563;50.084;14.468;2024-01-30T05:52:01;100373.31;;;-2.45;96.16
81057;BME280;70563;50.084;14.468;2024-01-30T05:54:27;100366.31;;;-2.43;96.42
81057;BME280;70563;50.084;14.468;2024-01-30T05:56:52;100368.50;;;-2.32;96.85
81057;BME280;70563;50.084;14.468;2024-01-30T05:59:17;100360.69;;;-2.31;96.83
81057;BME280;70563;50.084;14.468;2024-01-30T06:01:46;100358.00;;;-2.29;95.91
81057;BME280;70563;50.084;14.468;2024-01-30T06:04:12;100360.59;;;-2.29;95.60
81057;BME280;70563;50.084;14.468;2024-01-30T06:06:38;100359.41;;;-2.20;95.44
81057;BME280;70563;50.084;14.468;2024-01-30T06:09:03;100366.75;;;-2.54;96.35
81057;BME280;70563;50.084;14.468;2024-01-30T06:11:29;100361.63;;;-2.33;96.20
81057;BME280;70563;50.084;14.468;2024-01-30T06:13:54;100367.13;;;-2.41;96.07
81057;BME280;70563;50.084;14.468;2024-01-30T06:16:19;100360.69;;;-2.31;96.59
81057;BME280;70563;50.084;14.468;2024-01-30T06:18:46;100361.34;;;-2.25;95.43
81057;BME280;70563;50.084;14.468;2024-01-30T06:21:12;100358.38;;;-2.16;95.04
81057;BME280;70563;50.084;14.468;2024-01-30T06:23:38;100358.00;;;-2.29;95.69
81057;BME280;70563;50.084;14.468;2024-01-30T06:26:04;100356.81;;;-2.20;95.94
81057;BME280;70563;50.084;14.468;2024-01-30T06:28:30;100357.59;;;-2.18;95.95
81057;BME280;70563;50.084;14.468;2024-01-30T06:30:55;100361.41;;;-2.27;95.55
81057;BME280;70563;50.084;14.468;2024-01-30T06:33:20;100367.53;;;-2.52;96.15
81057;BME280;70563;50.084;14.468;2024-01-30T06:35:46;100371.69;;;-2.47;96.53
81057;BME280;70563;50.084;14.468;2024-01-30T06:38:11;100370.78;;;-2.46;97.25
81057;BME280;70563;50.084;14.468;2024-01-30T06:40:38;100377.75;;;-2.27;96.72
81057;BME280;70563;50.084;14.468;2024-01-30T06:43:04;100375.47;;;-2.12;95.39
81057;BME280;70563;50.084;14.468;2024-01-30T06:45:30;100368.13;;;-2.23;95.58
81057;BME280;70563;50.084;14.468;2024-01-30T06:47:55;100374.53;;;-2.54;96.06
81057;BME280;70563;50.084;14.468;2024-01-30T06:50:20;100379.03;;;-2.59;97.04
81057;BME280;70563;50.084;14.468;2024-01-30T06:52:46;100386.44;;;-2.49;96.67
81057;BME280;70563;50.084;14.468;2024-01-30T06:55:11;100383.66;;;-2.45;96.88
81057;BME280;70563;50.084;14.468;2024-01-30T06:57:37;100387.84;;;-2.64;96.85
81057;BME280;70563;50.084;14.468;2024-01-30T07:00:03;100391.00;;;-2.56;97.48
81057;BME280;70563;50.084;14.468;2024-01-30T07:02:28;100391.28;;;-2.42;98.06
81057;BME280;70563;50.084;14.468;2024-01-30T07:04:54;100395.16;;;-2.52;97.45
81057;BME280;70563;50.084;14.468;2024-01-30T07:07:20;100394.03;;;-2.45;97.26
81057;BME280;70563;50.084;14.468;2024-01-30T07:09:45;100397.84;;;-2.55;97.09
81057;BME280;70563;50.084;14.468;2024-01-30T07:12:11;100397.91;;;-2.35;97.96
81057;BME280;70563;50.084;14.468;2024-01-30T07:14:36;100399.13;;;-2.21;97.15
81057;BME280;70563;50.084;14.468;2024-01-30T07:17:01;100392.38;;;-2.04;96.14
81057;BME280;70563;50.084;14.468;2024-01-30T07:19:27;100395.16;;;-2.08;94.34
81057;BME280;70563;50.084;14.468;2024-01-30T07:21:52;100394.94;;;-2.04;95.47
81057;BME280;70563;50.084;14.468;2024-01-30T07:24:18;100396.09;;;-1.89;94.34
81057;BME280;70563;50.084;14.468;2024-01-30T07:26:43;100397.91;;;-1.70;93.08
81057;BME280;70563;50.084;14.468;2024-01-30T07:29:08;100403.69;;;-1.64;93.92
81057;BME280;70563;50.084;14.468;2024-01-30T07:31:34;100394.19;;;-1.63;91.68
81057;BME280;70563;50.084;14.468;2024-01-30T07:33:59;100402.47;;;-1.75;92.77
81057;BME280;70563;50.084;14.468;2024-01-30T07:36:24;100401.66;;;-1.78;92.62
81057;BME280;70563;50.084;14.468;2024-01-30T07:38:50;100399.81;;;-1.96;91.89
81057;BME280;70563;50.084;14.468;2024-01-30T07:41:15;100402.25;;;-2.13;92.77
81057;BME280;70563;50.084;14.468;2024-01-30T07:43:40;100414.28;;;-2.12;92.90
81057;BME280;70563;50.084;14.468;2024-01-30T07:46:06;100417.56;;;-1.87;93.88
81057;BME280;70563;50.084;14.468;2024-01-30T07:48:32;100413.63;;;-1.95;92.42
81057;BME280;70563;50.084;14.468;2024-01-30T07:50:59;100416.66;;;-1.86;92.46
81057;BME280;70563;50.084;14.468;2024-01-30T07:53:24;100419.97;;;-2.03;92.59
81057;BME280;70563;50.084;14.468;2024-01-30T07:55:50;100414.59;;;-1.78;92.91
81057;BME280;70563;50.084;14.468;2024-01-30T07:58:15;100424.44;;;-1.64;92.86
81057;BME280;70563;50.084;14.468;2024-01-30T08:00:41;100424.16;;;-2.00;91.80
81057;BME280;70563;50.084;14.468;2024-01-30T08:03:06;100415.78;;;-1.85;92.06
81057;BME280;70563;50.084;14.468;2024-01-30T08:05:32;100417.34;;;-1.60;92.47
81057;BME280;70563;50.084;14.468;2024-01-30T08:07:57;100415.69;;;-1.41;92.20
81057;BME280;70563;50.084;14.468;2024-01-30T08:10:22;100415.75;;;-1.63;90.14
81057;BME280;70563;50.084;14.468;2024-01-30T08:12:48;100409.13;;;-1.70;90.72
81057;BME280;70563;50.084;14.468;2024-01-30T08:15:14;100415.03;;;-1.46;90.46
81057;BME280;70563;50.084;14.468;2024-01-30T08:17:39;100405.88;;;-1.34;90.16
81057;BME280;70563;50.084;14.468;2024-01-30T08:20:05;100416.31;;;-1.15;89.01
81057;BME280;70563;50.084;14.468;2024-01-30T08:22:32;100412.63;;;-1.50;89.08
81057;BME280;70563;50.084;14.468;2024-01-30T08:24:57;100404.38;;;-1.19;88.40
81057;BME280;70563;50.084;14.468;2024-01-30T08:27:22;100404.69;;;-1.07;87.77
81057;BME280;70563;50.084;14.468;2024-01-30T08:29:48;100398.13;;;-0.95;87.37
81057;BME280;70563;50.084;14.468;2024-01-30T08:32:15;100401.16;;;-0.85;86.63
81057;BME280;70563;50.084;14.468;2024-01-30T08:34:40;100400.94;;;-0.81;86.24
81057;BME280;70563;50.084;14.468;2024-01-30T08:37:07;100401.22;;;-0.68;85.89
81057;BME280;70563;50.084;14.468;2024-01-30T08:39:32;100403.75;;;-0.85;86.82
81057;BME280;70563;50.084;14.468;2024-01-30T08:41:58;100406.13;;;-0.81;87.56
81057;BME280;70563;50.084;14.468;2024-01-30T08:44:23;100400.63;;;-1.12;88.38
81057;BME280;70563;50.084;14.468;2024-01-30T08:46:48;100406.78;;;-0.96;88.38
81057;BME280;70563;50.084;14.468;2024-01-30T08:49:16;100401.28;;;-0.69;87.08
81057;BME280;70563;50.084;14.468;2024-01-30T08:51:41;100411.09;;;-0.95;88.06
81057;BME280;70563;50.084;14.468;2024-01-30T08:54:07;100405.84;;;-0.74;87.77
81057;BME280;70563;50.084;14.468;2024-01-30T08:56:32;100399.22;;;-0.44;85.65
81057;BME280;70563;50.084;14.468;2024-01-30T08:58:58;100397.91;;;-0.53;87.36
81057;BME280;70563;50.084;14.468;2024-01-30T09:01:23;100404.06;;;-0.74;87.20
81057;BME280;70563;50.084;14.468;2024-01-30T09:03:48;100398.41;;;-0.63;86.74
81057;BME280;70563;50.084;14.468;2024-01-30T09:06:14;100395.03;;;-0.65;86.20
81057;BME280;70563;50.084;14.468;2024-01-30T09:08:39;100407.38;;;-0.33;85.41
81057;BME280;70563;50.084;14.468;2024-01-30T09:11:15;100409.56;;;-0.06;84.26
81057;BME280;70563;50.084;14.468;2024-01-30T09:13:40;100391.25;;;0.14;83.62
81057;BME280;70563;50.084;14.468;2024-01-30T09:16:06;100389.81;;;0.26;82.26
81057;BME280;70563;50.084;14.468;2024-01-30T09:18:32;100392.41;;;0.61;80.74
81057;BME280;70563;50.084;14.468;2024-01-30T09:20:57;100383.91;;;0.57;80.22
81057;BME280;70563;50.084;14.468;2024-01-30T09:23:23;100382.81;;;0.79;80.69
81057;BME280;70563;50.084;14.468;2024-01-30T09:25:49;100384.34;;;0.83;80.62
81057;BME280;70563;50.084;14.468;2024-01-30T09:28:14;100379.69;;;0.55;80.63
81057;BME280;70563;50.084;14.468;2024-01-30T09:30:39;100394.13;;;0.60;83.25
81057;BME280;70563;50.084;14.468;2024-01-30T09:33:06;100389.97;;;0.91;81.02
81057;BME280;70563;50.084;14.468;2024-01-30T09:35:31;100397.50;;;1.13;80.03
81057;BME280;70563;50.084;14.468;2024-01-30T09:37:57;100397.78;;;0.91;80.56
81057;BME280;70563;50.084;14.468;2024-01-30T09:40:23;100391.75;;;1.06;80.40
81057;BME280;70563;50.084;14.468;2024-01-30T09:42:50;100400.34;;;1.24;80.23
81057;BME280;70563;50.084;14.468;2024-01-30T09:45:17;100401.69;;;1.15;81.10
81057;BME280;70563;50.084;14.468;2024-01-30T09:47:44;100402.19;;;1.22;81.64
81057;BME280;70563;50.084;14.468;2024-01-30T09:50:14;100403.13;;;1.37;81.48
81057;BME280;70563;50.084;14.468;2024-01-30T09:52:40;100402.69;;;1.29;82.30
81057;BME280;70563;50.084;14.468;2024-01-30T09:55:06;100397.59;;;0.94;82.24
81057;BME280;70563;50.084;14.468;2024-01-30T09:57:32;100396.34;;;0.68;84.23
81057;BME280;70563;50.084;14.468;2024-01-30T09:59:58;100393.88;;;0.49;83.92
81057;BME280;70563;50.084;14.468;2024-01-30T10:02:23;100392.00;;;0.51;84.49
81057;BME280;70563;50.084;14.468;2024-01-30T10:04:50;100388.44;;;0.19;85.52
81057;BME280;70563;50.084;14.468;2024-01-30T10:07:16;100390.25;;;0.17;85.32
81057;BME280;70563;50.084;14.468;2024-01-30T10:09:41;100384.81;;;0.39;84.56
81057;BME280;70563;50.084;14.468;2024-01-30T10:12:07;100379.19;;;0.48;84.10
81057;BME280;70563;50.084;14.468;2024-01-30T10:14:34;100381.47;;;0.37;84.29
81057;BME280;70563;50.084;14.468;2024-01-30T10:17:01;100375.88;;;0.62;83.70
81057;BME280;70563;50.084;14.468;2024-01-30T10:19:26;100378.69;;;0.74;83.37
81057;BME280;70563;50.084;14.468;2024-01-30T10:21:52;100375.06;;;0.44;84.21
81057;BME280;70563;50.084;14.468;2024-01-30T10:24:18;100371.56;;;0.28;84.89
81057;BME280;70563;50.084;14.468;2024-01-30T10:26:44;100373.44;;;0.24;85.77
81057;BME280;70563;50.084;14.468;2024-01-30T10:29:09;100367.66;;;0.36;85.81
81057;BME280;70563;50.084;14.468;2024-01-30T10:31:34;100365.13;;;0.35;85.59
81057;BME280;70563;50.084;14.468;2024-01-30T10:34:00;100366.63;;;0.56;85.21
81057;BME280;70563;50.084;14.468;2024-01-30T10:36:28;100370.03;;;0.23;84.72
81057;BME280;70563;50.084;14.468;2024-01-30T10:38:59;100374.75;;;0.15;85.88
81057;BME280;70563;50.084;14.468;2024-01-30T10:41:27;100371.53;;;0.62;84.47
81057;BME280;70563;50.084;14.468;2024-01-30T10:44:03;100358.47;;;0.29;85.41
81057;BME280;70563;50.084;14.468;2024-01-30T10:46:33;100367.28;;;0.09;85.33
81057;BME280;70563;50.084;14.468;2024-01-30T10:49:00;100366.34;;;0.10;86.56
81057;BME280;70563;50.084;14.468;2024-01-30T10:51:28;100375.06;;;-0.08;86.44
81057;BME280;70563;50.084;14.468;2024-01-30T10:53:55;100367.06;;;-0.22;87.05
81057;BME280;70563;50.084;14.468;2024-01-30T10:56:21;100361.03;;;-0.23;87.50
81057;BME280;70563;50.084;14.468;2024-01-30T10:58:55;100360.44;;;-0.11;87.57
81057;BME280;70563;50.084;14.468;2024-01-30T11:01:25;100361.84;;;-0.04;87.53
81057;BME280;70563;50.084;14.468;2024-01-30T11:03:55;100356.88;;;0.09;86.79
81057;BME280;70563;50.084;14.468;2024-01-30T11:06:25;100357.72;;;0.10;86.61
81057;BME280;70563;50.084;14.468;2024-01-30T11:09:04;100360.69;;;0.02;86.43
81057;BME280;70563;50.084;14.468;2024-01-30T11:11:50;100345.72;;;0.07;86.35
81057;BME280;70563;50.084;14.468;2024-01-30T11:14:15;100353.22;;;0.13;85.86
81057;BME280;70563;50.084;14.468;2024-01-30T11:16:41;100342.50;;;0.02;86.53
81057;BME280;70563;50.084;14.468;2024-01-30T11:19:10;100346.56;;;0.08;86.11
81057;BME280;70563;50.084;14.468;2024-01-30T11:21:41;100341.59;;;0.03;86.82
81057;BME280;70563;50.084;14.468;2024-01-30T11:24:08;100338.00;;;0.06;86.06
81057;BME280;70563;50.084;14.468;2024-01-30T11:26:33;100341.75;;;0.00;86.78
81057;BME280;70563;50.084;14.468;2024-01-30T11:29:03;100344.56;;;-0.05;86.57
81057;BME280;70563;50.084;14.468;2024-01-30T11:31:29;100331.78;;;0.25;85.77
81057;BME280;70563;50.084;14.468;2024-01-30T11:33:56;100337.84;;;0.26;86.37
81057;BME280;70563;50.084;14.468;2024-01-30T11:36:25;100337.91;;;0.07;85.98
81057;BME280;70563;50.084;14.468;2024-01-30T11:38:51;100331.78;;;0.43;87.14
81057;BME280;70563;50.084;14.468;2024-01-30T11:41:17;100325.69;;;0.44;85.41
81057;BME280;70563;50.084;14.468;2024-01-30T11:43:51;100333.53;;;0.42;85.06
81057;BME280;70563;50.084;14.468;2024-01-30T11:46:16;100320.66;;;0.23;85.44
81057;BME280;70563;50.084;14.468;2024-01-30T11:48:42;100326.19;;;0.17;85.52
81057;BME280;70563;50.084;14.468;2024-01-30T11:51:07;100316.44;;;0.04;85.41
81057;BME280;70563;50.084;14.468;2024-01-30T11:53:33;100327.91;;;-0.01;86.24
81057;BME280;70563;50.084;14.468;2024-01-30T11:55:58;100315.38;;;0.08;86.07
81057;BME280;70563;50.084;14.468;2024-01-30T11:58:26;100316.22;;;0.25;85.89
81057;BME280;70563;50.084;14.468;2024-01-30T12:00:55;100313.94;;;0.19;85.11
81057;BME280;70563;50.084;14.468;2024-01-30T12:03:21;100308.81;;;0.18;85.31
81057;BME280;70563;50.084;14.468;2024-01-30T12:05:55;100309.19;;;0.28;84.74
81057;BME280;70563;50.084;14.468;2024-01-30T12:08:20;100310.88;;;0.29;84.67
81057;BME280;70563;50.084;14.468;2024-01-30T12:10:45;100307.81;;;0.20;85.05
81057;BME280;70563;50.084;14.468;2024-01-30T12:13:11;100300.38;;;0.30;84.24
81057;BME280;70563;50.084;14.468;2024-01-30T12:15:37;100299.31;;;0.34;84.67
81057;BME280;70563;50.084;14.468;2024-01-30T12:18:04;100296.16;;;0.45;83.93
81057;BME280;70563;50.084;14.468;2024-01-30T12:20:30;100298.69;;;0.46;84.45
81057;BME280;70563;50.084;14.468;2024-01-30T12:22:56;100291.41;;;0.53;83.97
81057;BME280;70563;50.084;14.468;2024-01-30T12:25:21;100287.28;;;0.49;83.99
81057;BME280;70563;50.084;14.468;2024-01-30T12:27:49;100281.16;;;0.50;83.50
81057;BME280;70563;50.084;14.468;2024-01-30T12:30:15;100280.47;;;0.46;84.27
81057;BME280;70563;50.084;14.468;2024-01-30T12:32:43;100284.84;;;0.46;84.12
81057;BME280;70563;50.084;14.468;2024-01-30T12:35:13;100280.34;;;0.49;84.25
81057;BME280;70563;50.084;14.468;2024-01-30T12:37:39;100274.00;;;0.38;84.53